createdAt,value
2018-09-18T00:01:28.048Z,15.46
2018-09-18T00:03:58.849Z,15.34
2018-09-18T00:06:29.618Z,15.49
2018-09-18T00:09:00.442Z,15.62
2018-09-18T00:11:31.207Z,15.72
2018-09-18T00:14:02.049Z,15.68
2018-09-18T00:16:32.819Z,15.58
2018-09-18T00:19:03.982Z,15.46
2018-09-18T00:21:35.334Z,15.56
2018-09-18T00:24:06.137Z,15.19
2018-09-18T00:26:40.873Z,14.95
2018-09-18T00:29:11.671Z,14.57
2018-09-18T00:31:42.476Z,14.08
2018-09-18T00:34:13.873Z,13.92
2018-09-18T00:36:44.645Z,13.87
2018-09-18T00:39:15.893Z,14.08
2018-09-18T00:41:46.797Z,14.12
2018-09-18T00:44:17.591Z,14.08
2018-09-18T00:46:49.332Z,13.81
2018-09-18T00:49:20.157Z,13.67
2018-09-18T00:51:50.997Z,13.61
2018-09-18T00:54:22.061Z,13.59
2018-09-18T00:56:52.822Z,13.63
2018-09-18T00:59:23.605Z,13.69
2018-09-18T01:01:54.353Z,13.76
2018-09-18T01:04:27.442Z,13.80
2018-09-18T01:06:58.362Z,13.97
2018-09-18T01:09:29.389Z,13.94
2018-09-18T01:12:00.607Z,14.01
2018-09-18T01:14:31.481Z,14.03
2018-09-18T01:17:02.789Z,13.76
2018-09-18T01:19:33.650Z,13.25
2018-09-18T01:22:04.582Z,13.16
2018-09-18T01:25:59.647Z,13.55
2018-09-18T01:28:31.021Z,13.69
2018-09-18T01:31:03.049Z,13.87
2018-09-18T01:33:35.088Z,13.98
2018-09-18T01:36:06.785Z,13.97
2018-09-18T01:38:37.913Z,13.94
2018-09-18T01:41:08.693Z,14.00
2018-09-18T01:43:39.699Z,13.92
2018-09-18T01:46:11.536Z,13.94
2018-09-18T01:48:46.210Z,14.02
2018-09-18T01:51:17.063Z,13.98
2018-09-18T01:53:48.509Z,13.88
2018-09-18T01:56:19.459Z,13.53
2018-09-18T01:58:50.210Z,13.37
2018-09-18T02:01:20.993Z,13.29
2018-09-18T02:03:52.381Z,12.81
2018-09-18T02:06:23.334Z,12.74
2018-09-18T02:08:54.365Z,12.47
2018-09-18T02:11:25.147Z,12.11
2018-09-18T02:13:55.898Z,11.94
2018-09-18T02:16:27.729Z,11.91
2018-09-18T02:18:59.265Z,11.95
2018-09-18T02:21:30.099Z,11.96
2018-09-18T02:24:01.461Z,11.87
2018-09-18T02:26:32.390Z,11.73
2018-09-18T02:29:03.140Z,11.58
2018-09-18T02:31:36.692Z,11.43
2018-09-18T02:34:07.960Z,11.56
2018-09-18T02:36:41.422Z,11.92
2018-09-18T02:39:13.179Z,12.29
2018-09-18T02:41:44.428Z,12.36
2018-09-18T02:44:17.815Z,12.49
2018-09-18T02:46:49.672Z,12.48
2018-09-18T02:49:20.653Z,12.60
2018-09-18T02:51:51.809Z,12.46
2018-09-18T02:54:22.562Z,12.68
2018-09-18T02:56:54.417Z,12.74
2018-09-18T02:59:25.181Z,12.34
2018-09-18T03:01:56.009Z,12.20
2018-09-18T03:04:27.611Z,12.04
2018-09-18T03:06:58.628Z,11.95
2018-09-18T03:09:29.379Z,11.92
2018-09-18T03:12:01.290Z,11.71
2018-09-18T03:14:32.067Z,11.58
2018-09-18T03:17:02.868Z,11.45
2018-09-18T03:19:34.362Z,11.13
2018-09-18T03:22:05.862Z,11.05
2018-09-18T03:24:36.609Z,10.86
2018-09-18T03:27:07.665Z,10.57
2018-09-18T03:29:38.494Z,10.41
2018-09-18T03:32:09.304Z,10.42
2018-09-18T03:34:40.088Z,10.44
2018-09-18T03:37:10.959Z,10.79
2018-09-18T03:39:42.433Z,10.75
2018-09-18T03:42:13.216Z,10.75
2018-09-18T03:44:44.155Z,10.59
2018-09-18T03:47:14.943Z,10.39
2018-09-18T03:49:45.701Z,10.38
2018-09-18T03:52:16.497Z,10.44
2018-09-18T03:54:47.528Z,10.59
2018-09-18T03:57:18.358Z,10.94
2018-09-18T03:59:49.140Z,11.31
2018-09-18T04:02:19.995Z,11.22
2018-09-18T04:04:51.161Z,11.11
2018-09-18T04:07:22.020Z,11.14
2018-09-18T04:09:52.893Z,11.14
2018-09-18T04:12:24.267Z,11.35
2018-09-18T04:14:55.025Z,11.55
2018-09-18T04:17:26.684Z,11.67
2018-09-18T04:19:57.722Z,11.83
2018-09-18T04:22:28.645Z,11.75
2018-09-18T04:24:59.400Z,11.52
2018-09-18T04:27:30.237Z,11.56
2018-09-18T04:30:05.734Z,11.37
2018-09-18T04:32:37.013Z,11.25
2018-09-18T04:35:08.230Z,11.30
2018-09-18T04:37:39.017Z,11.17
2018-09-18T04:40:09.821Z,11.12
2018-09-18T04:42:41.682Z,11.16
2018-09-18T04:45:12.516Z,11.00
2018-09-18T04:47:43.705Z,11.00
2018-09-18T04:50:14.451Z,11.07
2018-09-18T04:52:45.326Z,11.06
2018-09-18T04:55:16.738Z,11.24
2018-09-18T04:57:47.598Z,11.40
2018-09-18T05:00:18.352Z,11.40
2018-09-18T05:02:49.131Z,11.51
2018-09-18T05:05:19.883Z,11.48
2018-09-18T05:07:50.683Z,11.54
2018-09-18T05:10:25.378Z,11.54
2018-09-18T05:12:56.241Z,11.92
2018-09-18T05:15:27.707Z,12.23
2018-09-18T05:17:59.792Z,12.53
2018-09-18T05:20:33.261Z,12.73
2018-09-18T05:23:04.050Z,12.82
2018-09-18T05:25:34.835Z,12.86
2018-09-18T05:28:06.853Z,13.06
2018-09-18T05:32:01.620Z,13.19
2018-09-18T05:34:32.435Z,13.55
2018-09-18T05:37:04.997Z,13.51
2018-09-18T05:39:35.810Z,13.35
2018-09-18T05:42:06.872Z,13.28
2018-09-18T05:44:38.397Z,13.34
2018-09-18T05:47:10.414Z,13.38
2018-09-18T05:49:41.306Z,13.63
2018-09-18T05:52:12.644Z,13.87
2018-09-18T05:54:44.045Z,14.20
2018-09-18T05:57:15.223Z,14.42
2018-09-18T05:59:46.073Z,14.41
2018-09-18T06:02:17.510Z,14.72
2018-09-18T06:04:48.482Z,15.26
2018-09-18T06:07:20.094Z,15.39
2018-09-18T06:09:52.472Z,15.85
2018-09-18T06:12:23.311Z,16.07
2018-09-18T06:14:54.312Z,16.28
2018-09-18T06:17:25.853Z,16.57
2018-09-18T06:19:56.986Z,16.95
2018-09-18T06:22:27.746Z,17.23
2018-09-18T06:24:58.787Z,16.99
2018-09-18T06:27:29.567Z,17.19
2018-09-18T06:30:00.812Z,17.41
2018-09-18T06:32:31.645Z,17.45
2018-09-18T06:35:02.584Z,17.72
2018-09-18T06:37:33.901Z,17.89
2018-09-18T06:40:04.808Z,18.16
2018-09-18T06:42:35.568Z,18.30
2018-09-18T06:45:07.368Z,18.58
2018-09-18T06:47:38.150Z,18.46
2018-09-18T06:50:09.069Z,18.28
2018-09-18T06:52:39.897Z,18.44
2018-09-18T06:55:10.710Z,18.46
2018-09-18T06:57:41.650Z,18.66
2018-09-18T07:00:12.628Z,18.83
2018-09-18T07:02:43.387Z,18.91
2018-09-18T07:07:50.280Z,19.28
2018-09-18T07:10:21.141Z,19.27
2018-09-18T07:12:52.011Z,19.78
2018-09-18T07:15:23.555Z,19.86
2018-09-18T07:17:54.530Z,19.69
2018-09-18T07:20:25.642Z,19.75
2018-09-18T07:22:56.454Z,20.11
2018-09-18T07:25:27.370Z,20.44
2018-09-18T07:27:58.194Z,20.63
2018-09-18T07:30:29.717Z,20.38
2018-09-18T07:33:00.541Z,20.71
2018-09-18T07:35:31.348Z,20.77
2018-09-18T07:38:02.122Z,21.20
2018-09-18T07:40:32.870Z,21.26
2018-09-18T07:43:04.576Z,21.55
2018-09-18T07:45:36.236Z,21.65
2018-09-18T07:48:07.051Z,21.63
2018-09-18T07:50:38.037Z,21.61
2018-09-18T07:53:09.799Z,21.07
2018-09-18T07:55:40.686Z,21.28
2018-09-18T07:58:12.606Z,21.47
2018-09-18T08:00:43.378Z,21.82
2018-09-18T08:03:14.563Z,21.88
2018-09-18T08:05:45.538Z,21.97
2018-09-18T08:08:16.601Z,21.70
2018-09-18T08:10:48.028Z,21.89
2018-09-18T08:13:23.608Z,22.05
2018-09-18T08:15:55.165Z,22.12
2018-09-18T08:18:25.977Z,22.25
2018-09-18T08:20:57.710Z,22.18
2018-09-18T08:23:28.846Z,22.50
2018-09-18T08:25:59.816Z,22.44
2018-09-18T08:28:31.190Z,22.71
2018-09-18T08:31:01.941Z,22.13
2018-09-18T08:33:32.809Z,22.44
2018-09-18T08:36:03.642Z,22.46
2018-09-18T08:38:34.690Z,22.79
2018-09-18T08:41:05.507Z,22.72
2018-09-18T08:43:36.343Z,22.82
2018-09-18T08:46:07.375Z,22.79
2018-09-18T08:48:42.252Z,22.88
2018-09-18T08:51:13.138Z,22.92
2018-09-18T08:53:44.150Z,23.14
2018-09-18T08:56:15.017Z,23.53
2018-09-18T08:58:45.865Z,23.39
2018-09-18T09:01:17.193Z,23.22
2018-09-18T09:03:48.444Z,23.87
2018-09-18T09:06:19.769Z,23.98
2018-09-18T09:08:56.299Z,24.35
2018-09-18T09:11:27.203Z,23.75
2018-09-18T09:13:58.008Z,23.34
2018-09-18T09:16:29.100Z,23.96
2018-09-18T09:19:01.596Z,24.33
2018-09-18T09:21:35.682Z,24.43
2018-09-18T09:24:06.916Z,24.40
2018-09-18T09:26:37.697Z,24.79
2018-09-18T09:29:09.967Z,24.95
2018-09-18T09:31:40.753Z,24.81
2018-09-18T09:34:23.914Z,25.18
2018-09-18T09:36:55.170Z,25.70
2018-09-18T09:39:26.593Z,25.90
2018-09-18T09:41:59.141Z,26.09
2018-09-18T09:44:29.965Z,26.33
2018-09-18T09:47:00.757Z,26.46
2018-09-18T09:49:31.579Z,26.72
2018-09-18T09:52:04.676Z,26.64
2018-09-18T09:54:35.488Z,26.36
2018-09-18T09:57:06.410Z,25.94
2018-09-18T09:59:37.345Z,25.67
2018-09-18T10:02:13.152Z,25.58
2018-09-18T10:04:43.939Z,25.63
2018-09-18T10:07:15.049Z,25.95
2018-09-18T10:09:52.670Z,26.00
2018-09-18T10:12:23.455Z,26.75
2018-09-18T10:14:54.276Z,26.71
2018-09-18T10:17:25.143Z,25.92
2018-09-18T10:19:56.769Z,25.56
2018-09-18T10:22:27.641Z,25.78
2018-09-18T10:24:58.562Z,26.01
2018-09-18T10:27:29.570Z,26.06
2018-09-18T10:30:00.359Z,26.43
2018-09-18T10:32:31.582Z,26.30
2018-09-18T10:35:02.634Z,26.73
2018-09-18T10:37:36.684Z,27.09
2018-09-18T10:40:08.003Z,27.37
2018-09-18T10:42:38.987Z,27.56
2018-09-18T10:45:10.083Z,27.96
2018-09-18T10:47:40.859Z,28.15
2018-09-18T10:50:14.619Z,27.57
2018-09-18T10:52:45.416Z,27.34
2018-09-18T10:55:16.665Z,27.26
2018-09-18T10:57:47.958Z,27.59
2018-09-18T11:00:19.023Z,27.69
2018-09-18T11:02:49.790Z,26.89
2018-09-18T11:05:21.276Z,27.21
2018-09-18T11:07:52.129Z,27.11
2018-09-18T11:10:23.531Z,26.81
2018-09-18T11:12:59.483Z,27.28
2018-09-18T11:15:35.884Z,27.16
2018-09-18T11:18:11.906Z,27.06
2018-09-18T11:20:48.183Z,27.29
2018-09-18T11:23:24.945Z,27.51
2018-09-18T11:26:00.752Z,27.80
2018-09-18T11:28:36.525Z,28.01
2018-09-18T11:31:12.362Z,28.19
2018-09-18T11:33:48.263Z,28.19
2018-09-18T11:36:24.477Z,28.33
2018-09-18T11:39:01.241Z,27.88
2018-09-18T11:41:37.106Z,27.43
2018-09-18T11:44:07.391Z,27.91
2018-09-18T11:46:37.712Z,27.71
2018-09-18T11:49:08.786Z,28.06
2018-09-18T11:51:39.570Z,27.84
2018-09-18T11:54:10.491Z,27.83
2018-09-18T11:56:41.321Z,28.75
2018-09-18T11:59:12.177Z,29.45
2018-09-18T12:01:42.978Z,29.25
2018-09-18T12:04:14.797Z,29.35
2018-09-18T12:06:45.545Z,28.90
2018-09-18T12:09:16.529Z,29.40
2018-09-18T12:11:47.670Z,29.30
2018-09-18T12:14:18.630Z,29.82
2018-09-18T12:16:49.426Z,29.21
2018-09-18T12:19:20.437Z,29.76
2018-09-18T12:21:51.628Z,29.95
2018-09-18T12:24:22.497Z,30.14
2018-09-18T12:26:53.351Z,30.06
2018-09-18T12:29:24.208Z,30.09
2018-09-18T12:31:54.993Z,29.68
2018-09-18T12:34:25.794Z,30.00
2018-09-18T12:36:57.595Z,30.44
2018-09-18T12:39:29.670Z,29.26
2018-09-18T12:42:00.571Z,28.91
2018-09-18T12:44:31.537Z,28.69
2018-09-18T12:47:02.328Z,28.42
2018-09-18T12:49:33.453Z,28.23
2018-09-18T12:52:04.478Z,27.23
2018-09-18T12:54:35.300Z,27.43
2018-09-18T12:57:06.245Z,27.58
2018-09-18T12:59:37.186Z,27.95
2018-09-18T13:02:08.107Z,28.14
2018-09-18T13:04:39.116Z,28.32
2018-09-18T13:07:10.569Z,28.81
2018-09-18T13:09:41.436Z,28.39
2018-09-18T13:12:12.193Z,28.07
2018-09-18T13:14:44.012Z,27.15
2018-09-18T13:17:18.012Z,27.39
2018-09-18T13:19:49.014Z,27.19
2018-09-18T13:22:19.825Z,27.35
2018-09-18T13:24:53.341Z,27.68
2018-09-18T13:27:24.415Z,28.29
2018-09-18T13:29:56.345Z,28.97
2018-09-18T13:32:27.189Z,29.60
2018-09-18T13:34:58.137Z,30.24
2018-09-18T13:37:29.357Z,30.10
2018-09-18T13:40:00.422Z,28.97
2018-09-18T13:42:34.309Z,28.21
2018-09-18T13:45:05.283Z,29.29
2018-09-18T13:47:39.553Z,30.58
2018-09-18T13:50:10.346Z,30.60
2018-09-18T13:52:41.650Z,31.42
2018-09-18T13:55:12.429Z,32.01
2018-09-18T13:57:43.966Z,32.97
2018-09-18T14:00:15.753Z,34.28
2018-09-18T14:02:46.502Z,34.59
2018-09-18T14:05:20.389Z,35.29
2018-09-18T14:07:51.168Z,33.95
2018-09-18T14:10:22.133Z,33.33
2018-09-18T14:12:53.365Z,34.00
2018-09-18T14:15:24.289Z,31.20
2018-09-18T14:17:55.130Z,30.79
2018-09-18T14:20:26.028Z,32.34
2018-09-18T14:22:56.969Z,32.35
2018-09-18T14:25:27.830Z,32.23
2018-09-18T14:27:58.787Z,32.74
2018-09-18T14:30:32.800Z,32.13
2018-09-18T14:33:03.692Z,31.03
2018-09-18T14:35:34.529Z,29.87
2018-09-18T14:38:05.265Z,29.72
2018-09-18T14:40:36.130Z,29.82
2018-09-18T14:43:07.941Z,29.16
2018-09-18T14:45:39.511Z,27.65
2018-09-18T14:48:10.559Z,27.09
2018-09-18T14:50:41.402Z,26.71
2018-09-18T14:53:12.241Z,26.51
2018-09-18T14:55:43.656Z,26.26
2018-09-18T14:58:15.358Z,25.94
2018-09-18T15:00:46.214Z,25.60
2018-09-18T15:03:17.000Z,25.54
2018-09-18T15:05:47.837Z,25.58
2018-09-18T15:08:19.466Z,25.45
2018-09-18T15:10:50.341Z,25.06
2018-09-18T15:13:21.864Z,25.05
2018-09-18T15:15:52.714Z,24.87
2018-09-18T15:18:23.663Z,24.79
2018-09-18T15:20:55.498Z,24.92
2018-09-18T15:23:26.266Z,24.90
2018-09-18T15:25:57.061Z,24.62
2018-09-18T15:28:28.301Z,24.64
2018-09-18T15:30:59.127Z,24.46
2018-09-18T15:33:29.956Z,24.45
2018-09-18T15:36:00.953Z,24.40
2018-09-18T15:38:32.111Z,24.26
2018-09-18T15:41:02.945Z,24.14
2018-09-18T15:43:34.391Z,23.91
2018-09-18T15:46:06.928Z,23.86
2018-09-18T15:48:38.913Z,23.70
2018-09-18T15:51:10.093Z,23.51
2018-09-18T15:53:45.644Z,23.33
2018-09-18T15:56:17.086Z,23.26
2018-09-18T15:58:48.922Z,23.10
2018-09-18T16:01:19.940Z,22.84
2018-09-18T16:03:51.007Z,22.70
2018-09-18T16:06:22.017Z,22.56
2018-09-18T16:08:52.869Z,22.35
2018-09-18T16:11:24.022Z,22.26
2018-09-18T16:13:54.813Z,22.29
2018-09-18T16:16:26.490Z,22.17
2018-09-18T16:18:57.441Z,22.11
2018-09-18T16:21:28.248Z,22.05
2018-09-18T16:23:59.233Z,21.75
2018-09-18T16:26:30.126Z,21.61
2018-09-18T16:29:00.960Z,21.62
2018-09-18T16:31:31.954Z,21.48
2018-09-18T16:34:03.343Z,21.47
2018-09-18T16:36:34.158Z,21.47
2018-09-18T16:39:05.936Z,21.16
2018-09-18T16:41:36.852Z,21.25
2018-09-18T16:44:07.608Z,21.07
2018-09-18T16:46:39.527Z,20.88
2018-09-18T16:49:11.650Z,20.66
2018-09-18T16:51:42.509Z,20.55
2018-09-18T16:54:13.312Z,20.44
2018-09-18T16:56:48.883Z,20.83
2018-09-18T16:59:19.688Z,20.66
2018-09-18T17:01:50.515Z,20.51
2018-09-18T17:04:21.371Z,20.31
2018-09-18T17:06:52.365Z,20.20
2018-09-18T17:09:23.134Z,20.10
2018-09-18T17:11:53.969Z,19.78
2018-09-18T17:14:25.047Z,19.63
2018-09-18T17:16:56.492Z,19.59
2018-09-18T17:19:28.292Z,19.44
2018-09-18T17:21:59.313Z,19.51
2018-09-18T17:24:30.401Z,19.53
2018-09-18T17:27:02.547Z,19.31
2018-09-18T17:29:33.405Z,19.10
2018-09-18T17:32:04.249Z,18.85
2018-09-18T17:34:35.017Z,18.87
2018-09-18T17:37:05.875Z,19.02
2018-09-18T17:39:36.700Z,19.04
2018-09-18T17:42:07.618Z,18.92
2018-09-18T17:44:38.385Z,18.88
2018-09-18T17:47:09.944Z,18.89
2018-09-18T17:49:40.934Z,18.90
2018-09-18T17:52:11.872Z,18.82
2018-09-18T17:54:42.640Z,18.83
2018-09-18T17:57:13.591Z,18.74
2018-09-18T17:59:44.398Z,18.72
2018-09-18T18:02:16.422Z,18.51
2018-09-18T18:04:48.229Z,18.50
2018-09-18T18:07:19.281Z,18.57
2018-09-18T18:09:50.220Z,18.67
2018-09-18T18:12:21.045Z,18.43
2018-09-18T18:14:55.163Z,18.24
2018-09-18T18:20:34.564Z,17.95
2018-09-18T18:23:06.169Z,18.09
2018-09-18T18:25:36.968Z,18.05
2018-09-18T18:28:07.851Z,18.06
2018-09-18T18:30:38.633Z,17.89
2018-09-18T18:33:10.134Z,17.57
2018-09-18T18:35:41.131Z,17.38
2018-09-18T18:38:12.283Z,17.59
2018-09-18T18:40:43.531Z,17.61
2018-09-18T18:43:14.408Z,17.61
2018-09-18T18:45:46.479Z,17.56
2018-09-18T18:48:17.903Z,17.57
2018-09-18T18:50:48.782Z,17.51
2018-09-18T18:53:19.607Z,17.49
2018-09-18T18:55:50.434Z,17.53
2018-09-18T18:58:21.245Z,17.67
2018-09-18T19:00:52.082Z,17.76
2018-09-18T19:03:23.844Z,17.64
2018-09-18T19:05:54.648Z,17.43
2018-09-18T19:08:26.629Z,17.50
2018-09-18T19:10:57.655Z,17.46
2018-09-18T19:13:28.555Z,17.28
2018-09-18T19:16:00.017Z,17.27
2018-09-18T19:18:31.010Z,17.12
2018-09-18T19:21:03.770Z,16.90
2018-09-18T19:23:35.667Z,16.85
2018-09-18T19:26:06.765Z,16.76
2018-09-18T19:28:38.347Z,16.72
2018-09-18T19:31:09.796Z,16.51
2018-09-18T19:33:41.809Z,16.48
2018-09-18T19:36:12.655Z,16.46
2018-09-18T19:38:45.136Z,16.43
2018-09-18T19:41:20.866Z,16.42
2018-09-18T19:43:52.493Z,16.34
2018-09-18T19:46:23.423Z,16.22
2018-09-18T19:48:54.258Z,16.31
2018-09-18T19:51:25.391Z,16.55
2018-09-18T19:53:56.643Z,16.84
2018-09-18T19:56:27.764Z,16.80
2018-09-18T19:59:04.400Z,16.60
2018-09-18T20:01:40.196Z,16.53
2018-09-18T20:04:17.037Z,16.68
2018-09-18T20:06:52.736Z,16.86
2018-09-18T20:09:29.549Z,16.97
2018-09-18T20:12:06.505Z,16.74
2018-09-18T20:14:42.723Z,16.77
2018-09-18T20:17:18.692Z,16.91
2018-09-18T20:19:55.500Z,16.88
2018-09-18T20:22:31.333Z,16.77
2018-09-18T20:25:07.233Z,16.71
2018-09-18T20:27:43.152Z,16.73
2018-09-18T20:30:19.088Z,16.56
2018-09-18T20:32:56.697Z,16.31
2018-09-18T20:35:32.636Z,16.26
2018-09-18T20:38:08.602Z,16.24
2018-09-18T20:40:44.491Z,16.23
2018-09-18T20:43:20.349Z,16.26
2018-09-18T20:45:56.301Z,16.22
2018-09-18T20:48:32.045Z,16.05
2018-09-18T20:51:11.287Z,15.97
2018-09-18T20:53:46.955Z,15.96
2018-09-18T20:56:23.206Z,15.89
2018-09-18T20:58:59.049Z,15.89
2018-09-18T21:01:34.833Z,15.85
2018-09-18T21:04:10.702Z,15.66
2018-09-18T21:06:46.510Z,15.64
2018-09-18T21:09:22.321Z,15.46
2018-09-18T21:11:58.861Z,15.08
2018-09-18T21:14:34.760Z,15.17
2018-09-18T21:17:10.610Z,15.25
2018-09-18T21:19:46.448Z,15.44
2018-09-18T21:22:22.358Z,15.46
2018-09-18T21:25:16.065Z,15.48
2018-09-18T21:27:51.840Z,15.05
2018-09-18T21:30:28.249Z,14.94
2018-09-18T21:33:04.054Z,14.93
2018-09-18T21:35:39.792Z,15.09
2018-09-18T21:38:15.506Z,15.06
2018-09-18T21:40:51.666Z,14.99
2018-09-18T21:43:28.292Z,14.57
2018-09-18T21:46:04.708Z,14.48
2018-09-18T21:48:41.256Z,14.39
2018-09-18T21:51:17.950Z,14.47
2018-09-18T21:53:53.728Z,14.59
2018-09-18T21:56:29.615Z,14.57
2018-09-18T21:59:05.801Z,14.47
2018-09-18T22:01:41.632Z,14.35
2018-09-18T22:04:17.571Z,14.34
2018-09-18T22:06:53.333Z,14.39
2018-09-18T22:09:29.623Z,14.32
2018-09-18T22:12:05.277Z,14.32
2018-09-18T22:14:41.061Z,14.31
2018-09-18T22:17:17.302Z,14.20
2018-09-18T22:19:53.718Z,14.31
2018-09-18T22:22:29.566Z,14.16
2018-09-18T22:25:06.598Z,14.03
2018-09-18T22:27:42.260Z,13.94
2018-09-18T22:30:18.221Z,13.56
2018-09-18T22:32:54.957Z,13.53
2018-09-18T22:35:30.845Z,13.25
2018-09-18T22:38:07.658Z,13.24
2018-09-18T22:40:43.823Z,13.21
2018-09-18T22:43:19.630Z,12.79
2018-09-18T22:45:55.506Z,12.86
2018-09-18T22:48:31.481Z,12.73
2018-09-18T22:51:07.397Z,12.33
2018-09-18T22:53:44.372Z,11.96
2018-09-18T22:56:20.521Z,11.79
2018-09-18T22:58:56.565Z,11.77
2018-09-18T23:01:32.463Z,11.79
2018-09-18T23:04:08.226Z,11.97
2018-09-18T23:06:43.999Z,11.88
2018-09-18T23:09:19.856Z,11.80
2018-09-18T23:11:56.219Z,12.01
2018-09-18T23:14:32.114Z,12.22
2018-09-18T23:17:08.129Z,11.83
2018-09-18T23:19:43.870Z,11.40
2018-09-18T23:22:19.674Z,11.12
2018-09-18T23:24:55.537Z,11.50
2018-09-18T23:27:31.327Z,11.92
2018-09-18T23:30:07.186Z,12.07
2018-09-18T23:32:42.970Z,12.24
2018-09-18T23:35:18.770Z,12.09
2018-09-18T23:37:56.057Z,11.88
2018-09-18T23:40:31.879Z,11.71
2018-09-18T23:43:07.784Z,11.62
2018-09-18T23:45:43.990Z,11.69
2018-09-18T23:48:20.660Z,11.70
2018-09-18T23:50:57.194Z,11.73
2018-09-18T23:53:32.968Z,11.92
2018-09-18T23:56:08.650Z,12.03
2018-09-18T23:58:44.468Z,12.21
